Terminal Aerodrome Forecast
Issued by NWS

Home | Current Version | Previous Version | Text Only | Print | Product List | Glossary On
Versions: 1 2 3 4 5 6 7 8 9 10 11 12 13 14 15 16 17 18 19
000
FTUS41 KBOX 191739
TAFBAF
TAF
KBAF 191739Z 1918/2018 27006KT P6SM SCT050
     FM200900 VRB03KT 3SM BR FEW250
     FM201000 30004KT 6SM BR FEW250
     FM201400 31009KT P6SM SCT250=

USA.gov is the U.S. government's official web portal to all federal, state and local government web resources and services.